createdAt,value
2023-01-09T00:01:28.774Z,1.00
2023-01-09T00:04:19.072Z,1.15
2023-01-09T00:07:07.740Z,0.75
2023-01-09T00:09:56.368Z,1.23
2023-01-09T00:12:45.151Z,0.82
2023-01-09T00:15:33.721Z,0.70
2023-01-09T00:18:22.406Z,0.82
2023-01-09T00:21:14.420Z,1.33
2023-01-09T00:24:03.087Z,0.70
2023-01-09T00:26:51.778Z,1.00
2023-01-09T00:29:41.552Z,1.05
2023-01-09T00:32:30.795Z,1.08
2023-01-09T00:35:20.035Z,0.70
2023-01-09T00:38:10.015Z,0.73
2023-01-09T00:40:59.134Z,0.90
2023-01-09T00:43:51.393Z,0.70
2023-01-09T00:46:43.746Z,0.70
2023-01-09T00:49:34.873Z,0.88
2023-01-09T00:52:24.092Z,0.82
2023-01-09T00:55:15.445Z,0.55
2023-01-09T00:58:04.233Z,0.38
2023-01-09T01:00:53.091Z,0.73
2023-01-09T01:03:42.255Z,0.63
2023-01-09T01:06:48.570Z,0.68
2023-01-09T01:09:37.188Z,0.60
2023-01-09T01:12:27.243Z,0.60
2023-01-09T01:15:16.509Z,0.63
2023-01-09T01:18:05.349Z,0.60
2023-01-09T01:20:54.008Z,0.77
2023-01-09T01:23:42.724Z,0.70
2023-01-09T01:26:31.373Z,0.60
2023-01-09T01:29:21.391Z,1.00
2023-01-09T01:32:10.083Z,0.65
2023-01-09T01:34:58.780Z,0.50
2023-01-09T01:37:49.732Z,0.68
2023-01-09T01:40:40.346Z,0.85
2023-01-09T01:43:29.059Z,0.57
2023-01-09T01:46:19.434Z,0.82
2023-01-09T01:49:10.286Z,0.70
2023-01-09T01:51:59.138Z,0.45
2023-01-09T01:54:48.215Z,0.43
2023-01-09T01:57:37.417Z,0.70
2023-01-09T02:00:30.635Z,0.70
2023-01-09T02:03:23.313Z,0.30
2023-01-09T02:06:12.623Z,0.60
2023-01-09T02:09:01.278Z,0.57
2023-01-09T02:11:52.271Z,0.60
2023-01-09T02:14:40.927Z,0.43
2023-01-09T02:17:54.009Z,0.50
2023-01-09T02:20:53.381Z,0.63
2023-01-09T02:24:25.447Z,0.43
2023-01-09T02:27:28.954Z,0.50
2023-01-09T02:30:33.327Z,0.57
2023-01-09T02:33:39.131Z,0.57
2023-01-09T02:36:32.142Z,0.43
2023-01-09T02:39:25.593Z,0.50
2023-01-09T02:42:17.736Z,0.45
2023-01-09T02:45:07.320Z,0.30
2023-01-09T02:47:57.308Z,0.30
2023-01-09T02:50:50.150Z,0.70
2023-01-09T02:53:52.702Z,0.60
2023-01-09T02:56:56.969Z,0.32
2023-01-09T02:59:56.685Z,0.40
2023-01-09T03:02:49.639Z,0.50
2023-01-09T03:05:43.295Z,0.40
2023-01-09T03:08:36.087Z,0.60
2023-01-09T03:11:28.816Z,0.40
2023-01-09T03:14:19.755Z,0.60
2023-01-09T03:17:13.471Z,0.30
2023-01-09T03:20:03.218Z,0.50
2023-01-09T03:22:57.524Z,0.50
2023-01-09T03:25:46.223Z,0.40
2023-01-09T03:28:34.863Z,0.82
2023-01-09T03:31:24.034Z,0.30
2023-01-09T03:34:12.747Z,0.17
2023-01-09T03:37:01.769Z,0.60
2023-01-09T03:39:51.767Z,0.28
2023-01-09T03:42:40.417Z,0.28
2023-01-09T03:45:29.137Z,0.47
2023-01-09T03:48:17.787Z,0.32
2023-01-09T03:51:06.531Z,0.40
2023-01-09T03:53:55.182Z,0.30
2023-01-09T03:56:45.887Z,0.32
2023-01-09T03:59:34.487Z,0.43
2023-01-09T04:02:23.002Z,0.47
2023-01-09T04:05:12.288Z,0.30
2023-01-09T04:08:00.876Z,0.30
2023-01-09T04:10:50.359Z,0.35
2023-01-09T04:13:40.417Z,0.43
2023-01-09T04:16:29.020Z,0.45
2023-01-09T04:19:17.852Z,0.25
2023-01-09T04:22:06.499Z,0.40
2023-01-09T04:24:55.103Z,0.20
2023-01-09T04:27:46.026Z,0.22
2023-01-09T04:30:36.691Z,0.40
2023-01-09T04:33:25.258Z,0.70
2023-01-09T04:36:13.924Z,0.20
2023-01-09T04:39:02.541Z,0.20
2023-01-09T04:41:51.267Z,0.50
2023-01-09T04:44:40.111Z,0.25
2023-01-09T04:47:31.109Z,0.55
2023-01-09T04:50:19.954Z,0.20
2023-01-09T04:53:08.633Z,0.38
2023-01-09T04:55:57.239Z,0.35
2023-01-09T04:58:45.867Z,0.30
2023-01-09T05:01:34.920Z,0.30
2023-01-09T05:04:25.063Z,0.32
2023-01-09T05:07:13.714Z,0.55
2023-01-09T05:10:03.347Z,0.30
2023-01-09T05:12:52.574Z,0.40
2023-01-09T05:15:41.219Z,0.32
2023-01-09T05:18:29.973Z,0.20
2023-01-09T05:21:19.948Z,0.28
2023-01-09T05:24:09.172Z,0.20
2023-01-09T05:26:58.502Z,0.30
2023-01-09T05:29:47.094Z,0.40
2023-01-09T05:32:35.768Z,0.30
2023-01-09T05:35:24.872Z,0.40
2023-01-09T05:38:17.955Z,0.40
2023-01-09T05:41:07.130Z,0.30
2023-01-09T05:43:58.430Z,0.43
2023-01-09T05:46:47.200Z,0.30
2023-01-09T05:49:35.950Z,0.60
2023-01-09T05:52:24.782Z,0.32
2023-01-09T05:55:15.001Z,0.35
2023-01-09T05:58:03.634Z,0.40
2023-01-09T06:00:54.164Z,0.40
2023-01-09T06:03:42.849Z,0.40
2023-01-09T06:06:31.528Z,0.55
2023-01-09T06:09:20.164Z,0.30
2023-01-09T06:12:10.337Z,0.70
2023-01-09T06:14:58.903Z,0.68
2023-01-09T06:17:47.978Z,1.02
2023-01-09T06:20:36.880Z,0.63
2023-01-09T06:23:25.571Z,1.48
2023-01-09T06:26:14.177Z,1.20
2023-01-09T06:29:04.258Z,1.00
2023-01-09T06:31:52.889Z,1.05
2023-01-09T06:34:41.629Z,1.15
2023-01-09T06:37:30.796Z,0.93
2023-01-09T06:40:21.291Z,1.00
2023-01-09T06:43:09.980Z,1.02
2023-01-09T06:46:00.214Z,0.77
2023-01-09T06:48:48.910Z,1.00
2023-01-09T06:51:37.541Z,1.00
2023-01-09T06:54:28.666Z,1.23
2023-01-09T06:57:18.751Z,1.10
2023-01-09T07:00:08.455Z,1.35
2023-01-09T07:02:58.494Z,1.25
2023-01-09T07:05:47.911Z,0.90
2023-01-09T07:08:36.612Z,0.90
2023-01-09T07:11:25.274Z,0.80
2023-01-09T07:14:13.872Z,0.60
2023-01-09T07:17:02.973Z,0.95
2023-01-09T07:19:52.979Z,0.85
2023-01-09T07:22:44.593Z,0.80
2023-01-09T07:25:33.240Z,0.95
2023-01-09T07:28:21.898Z,0.80
2023-01-09T07:31:10.609Z,0.85
2023-01-09T07:34:00.565Z,1.10
2023-01-09T07:36:51.199Z,0.90
2023-01-09T07:39:39.843Z,0.55
2023-01-09T07:42:28.734Z,0.75
2023-01-09T07:45:17.495Z,0.73
2023-01-09T07:48:06.780Z,0.75
2023-01-09T07:50:55.462Z,0.50
2023-01-09T07:53:45.572Z,0.82
2023-01-09T07:56:34.279Z,0.68
2023-01-09T07:59:22.943Z,0.90
2023-01-09T08:02:12.346Z,0.43
2023-01-09T08:05:01.100Z,0.38
2023-01-09T08:07:51.339Z,0.55
2023-01-09T08:10:41.412Z,0.95
2023-01-09T08:13:30.128Z,0.55
2023-01-09T08:16:18.854Z,1.85
2023-01-09T08:19:07.699Z,0.50
2023-01-09T08:21:56.251Z,0.43
2023-01-09T08:24:44.909Z,0.63
2023-01-09T08:27:34.981Z,0.45
2023-01-09T08:30:23.703Z,0.52
2023-01-09T08:33:12.393Z,0.38
2023-01-09T08:36:01.056Z,0.50
2023-01-09T08:38:49.702Z,0.55
2023-01-09T08:41:56.118Z,0.30
2023-01-09T08:45:03.657Z,0.50
2023-01-09T08:47:52.309Z,0.47
2023-01-09T08:50:40.863Z,0.55
2023-01-09T08:53:29.706Z,0.20
2023-01-09T08:56:18.331Z,0.30
2023-01-09T08:59:06.961Z,0.43
2023-01-09T09:01:57.322Z,0.43
2023-01-09T09:04:48.038Z,0.98
2023-01-09T09:07:36.714Z,0.30
2023-01-09T09:10:27.451Z,0.38
2023-01-09T09:13:16.115Z,0.30
2023-01-09T09:16:04.932Z,0.40
2023-01-09T09:18:55.222Z,0.22
2023-01-09T09:21:45.350Z,0.60
2023-01-09T09:24:35.340Z,0.43
2023-01-09T09:27:24.159Z,0.40
2023-01-09T09:30:17.483Z,0.43
2023-01-09T09:33:06.780Z,0.43
2023-01-09T09:35:56.795Z,0.70
2023-01-09T09:38:45.462Z,0.38
2023-01-09T09:42:07.085Z,0.40
2023-01-09T09:45:03.638Z,0.40
2023-01-09T09:47:59.051Z,0.45
2023-01-09T09:51:19.520Z,0.52
2023-01-09T09:54:13.839Z,0.35
2023-01-09T09:57:04.568Z,0.25
2023-01-09T09:59:54.013Z,0.30
2023-01-09T10:02:46.737Z,0.30
2023-01-09T10:05:37.508Z,0.35
2023-01-09T10:08:33.820Z,0.30
2023-01-09T10:11:25.064Z,0.20
2023-01-09T10:14:23.816Z,0.25
2023-01-09T10:17:27.488Z,0.50
2023-01-09T10:20:45.579Z,0.25
2023-01-09T10:24:02.920Z,0.43
2023-01-09T10:26:54.066Z,0.40
2023-01-09T10:29:51.700Z,0.25
2023-01-09T10:32:53.012Z,0.30
2023-01-09T10:36:20.972Z,0.20
2023-01-09T10:39:16.542Z,0.32
2023-01-09T10:42:13.615Z,0.20
2023-01-09T10:45:07.575Z,0.40
2023-01-09T10:48:00.552Z,0.20
2023-01-09T10:50:49.888Z,0.20
2023-01-09T10:53:39.818Z,0.30
2023-01-09T10:56:32.495Z,0.25
2023-01-09T10:59:21.144Z,0.50
2023-01-09T11:02:26.197Z,0.30
2023-01-09T11:05:18.391Z,0.30
2023-01-09T11:08:15.637Z,0.10
2023-01-09T11:11:06.499Z,0.10
2023-01-09T11:14:06.009Z,0.35
2023-01-09T11:16:55.617Z,0.17
2023-01-09T11:20:03.074Z,0.20
2023-01-09T11:22:53.312Z,0.10
2023-01-09T11:25:54.034Z,0.30
2023-01-09T11:28:42.633Z,0.10
2023-01-09T11:31:32.829Z,0.10
2023-01-09T11:34:23.833Z,0.10
2023-01-09T11:37:15.882Z,0.20
2023-01-09T11:40:04.701Z,0.10
2023-01-09T11:43:13.529Z,0.20
2023-01-09T11:46:04.698Z,0.30
2023-01-09T11:48:58.696Z,0.13
2023-01-09T11:51:47.402Z,0.20
2023-01-09T11:54:37.839Z,0.20
2023-01-09T11:57:27.246Z,0.20
2023-01-09T12:00:26.927Z,0.10
2023-01-09T12:03:23.471Z,0.10
2023-01-09T12:06:19.589Z,0.13
2023-01-09T12:09:08.875Z,0.10
2023-01-09T12:12:03.099Z,0.20
2023-01-09T12:15:02.580Z,0.15
2023-01-09T12:18:15.955Z,0.05
2023-01-09T12:21:17.732Z,0.00
2023-01-09T12:24:53.219Z,0.10
2023-01-09T12:27:55.506Z,0.10
2023-01-09T12:30:52.646Z,0.10
2023-01-09T12:33:47.878Z,0.10
2023-01-09T12:36:44.464Z,0.00
2023-01-09T12:39:45.448Z,0.10
2023-01-09T12:42:43.746Z,0.15
2023-01-09T12:45:47.881Z,0.20
2023-01-09T12:48:52.328Z,0.10
2023-01-09T12:51:45.255Z,0.20
2023-01-09T12:54:38.990Z,0.10
2023-01-09T12:57:30.422Z,0.00
2023-01-09T13:00:23.741Z,0.15
2023-01-09T13:03:15.295Z,0.10
2023-01-09T13:06:04.800Z,0.08
2023-01-09T13:08:59.794Z,0.10
2023-01-09T13:11:53.342Z,0.10
2023-01-09T13:14:49.346Z,0.10
2023-01-09T13:17:40.827Z,0.00
2023-01-09T13:20:34.601Z,0.10
2023-01-09T13:23:28.317Z,0.10
2023-01-09T13:26:21.580Z,0.00
2023-01-09T13:29:16.365Z,0.10
2023-01-09T13:32:27.438Z,0.00
2023-01-09T13:35:16.762Z,0.00
2023-01-09T13:38:05.451Z,0.10
2023-01-09T13:41:29.831Z,0.10
2023-01-09T13:44:25.841Z,0.10
2023-01-09T13:47:20.288Z,0.00
2023-01-09T13:50:27.023Z,0.30
2023-01-09T13:53:49.449Z,0.00
2023-01-09T13:57:11.425Z,0.03
2023-01-09T14:00:42.891Z,0.00
2023-01-09T14:03:35.941Z,0.00
2023-01-09T14:06:28.096Z,0.00
2023-01-09T14:09:21.143Z,0.10
2023-01-09T14:12:09.890Z,0.15
2023-01-09T14:15:02.032Z,0.32
2023-01-09T14:17:50.931Z,0.03
2023-01-09T14:20:44.006Z,0.05
2023-01-09T14:23:51.152Z,0.20
2023-01-09T14:26:46.883Z,0.10
2023-01-09T14:29:44.203Z,0.30
2023-01-09T14:32:46.075Z,0.30
2023-01-09T14:35:46.508Z,0.13
2023-01-09T14:38:36.852Z,0.15
2023-01-09T14:41:52.475Z,0.20
2023-01-09T14:44:47.987Z,0.32
2023-01-09T14:47:41.111Z,0.43
2023-01-09T14:50:34.645Z,0.40
2023-01-09T14:53:29.069Z,0.50
2023-01-09T14:56:29.936Z,0.40
2023-01-09T14:59:18.975Z,0.30
2023-01-09T15:02:14.598Z,0.40
2023-01-09T15:05:06.440Z,0.30
2023-01-09T15:07:57.522Z,0.73
2023-01-09T15:10:48.591Z,0.47
2023-01-09T15:13:50.686Z,0.32
2023-01-09T15:16:39.376Z,0.20
2023-01-09T15:19:28.473Z,0.30
2023-01-09T15:22:24.910Z,0.30
2023-01-09T15:25:38.765Z,0.32
2023-01-09T15:28:32.669Z,0.30
2023-01-09T15:31:24.373Z,0.30
2023-01-09T15:34:18.631Z,0.30
2023-01-09T15:37:24.590Z,0.30
2023-01-09T15:40:21.954Z,0.22
2023-01-09T15:43:14.675Z,0.20
2023-01-09T15:46:04.898Z,0.50
2023-01-09T15:48:55.264Z,0.40
2023-01-09T15:51:46.353Z,0.20
2023-01-09T15:54:35.317Z,0.20
2023-01-09T15:57:35.407Z,0.30
2023-01-09T16:00:33.358Z,0.10
2023-01-09T16:03:24.937Z,0.20
2023-01-09T16:06:18.008Z,0.20
2023-01-09T16:09:17.416Z,0.20
2023-01-09T16:12:06.472Z,0.40
2023-01-09T16:14:57.125Z,0.20
2023-01-09T16:18:06.802Z,0.20
2023-01-09T16:21:18.102Z,0.20
2023-01-09T16:24:25.276Z,0.15
2023-01-09T16:27:21.285Z,0.22
2023-01-09T16:30:27.451Z,0.22
2023-01-09T16:33:22.094Z,0.20
2023-01-09T16:36:14.020Z,0.20
2023-01-09T16:39:03.114Z,0.10
2023-01-09T16:42:09.379Z,0.60
2023-01-09T16:44:57.946Z,0.45
2023-01-09T16:47:47.250Z,0.60
2023-01-09T16:50:35.857Z,0.25
2023-01-09T16:53:27.243Z,0.10
2023-01-09T16:56:18.602Z,0.22
2023-01-09T16:59:07.522Z,0.30
2023-01-09T17:01:56.559Z,0.20
2023-01-09T17:04:45.583Z,0.20
2023-01-09T17:07:34.450Z,0.20
2023-01-09T17:10:25.019Z,0.50
2023-01-09T17:13:13.842Z,0.20
2023-01-09T17:16:02.487Z,0.15
2023-01-09T17:18:51.450Z,0.20
2023-01-09T17:21:40.249Z,0.20
2023-01-09T17:24:46.351Z,0.40
2023-01-09T17:27:55.274Z,0.10
2023-01-09T17:30:43.869Z,0.20
2023-01-09T17:33:32.542Z,0.35
2023-01-09T17:36:26.582Z,0.30
2023-01-09T17:39:15.835Z,0.30
2023-01-09T17:42:04.576Z,0.30
2023-01-09T17:44:55.638Z,0.75
2023-01-09T17:47:44.272Z,0.63
2023-01-09T17:50:34.948Z,0.10
2023-01-09T17:53:25.313Z,0.45
2023-01-09T17:56:18.316Z,0.20
2023-01-09T17:59:07.438Z,0.22
2023-01-09T18:01:58.103Z,0.90
2023-01-09T18:04:46.920Z,0.30
2023-01-09T18:07:35.683Z,0.22
2023-01-09T18:10:27.207Z,0.20
2023-01-09T18:13:16.408Z,0.10
2023-01-09T18:16:05.676Z,0.40
2023-01-09T18:18:57.539Z,0.20
2023-01-09T18:21:46.789Z,0.30
2023-01-09T18:24:35.542Z,0.30
2023-01-09T18:27:24.535Z,0.10
2023-01-09T18:30:14.017Z,0.10
2023-01-09T18:33:02.633Z,0.17
2023-01-09T18:35:52.839Z,0.17
2023-01-09T18:38:41.803Z,0.20
2023-01-09T18:41:30.923Z,0.20
2023-01-09T18:44:21.971Z,0.10
2023-01-09T18:47:10.627Z,0.30
2023-01-09T18:49:59.296Z,0.30
2023-01-09T18:52:49.332Z,0.17
2023-01-09T18:55:38.665Z,0.20
2023-01-09T18:58:27.243Z,0.20
2023-01-09T19:01:16.155Z,0.30
2023-01-09T19:04:04.859Z,0.10
2023-01-09T19:06:56.082Z,0.20
2023-01-09T19:09:46.327Z,0.25
2023-01-09T19:12:35.011Z,0.40
2023-01-09T19:15:23.597Z,0.30
2023-01-09T19:18:12.580Z,0.25
2023-01-09T19:21:01.196Z,0.30
2023-01-09T19:23:50.280Z,0.10
2023-01-09T19:26:40.431Z,0.25
2023-01-09T19:29:29.088Z,0.17
2023-01-09T19:32:17.930Z,0.10
2023-01-09T19:35:07.233Z,0.20
2023-01-09T19:37:55.962Z,0.10
2023-01-09T19:40:44.690Z,0.10
2023-01-09T19:43:34.673Z,0.20
2023-01-09T19:46:25.068Z,0.22
2023-01-09T19:49:13.751Z,0.10
2023-01-09T19:52:02.411Z,0.50
2023-01-09T19:54:51.013Z,0.20
2023-01-09T19:57:39.864Z,0.10
2023-01-09T20:00:29.827Z,0.17
2023-01-09T20:03:18.515Z,0.10
2023-01-09T20:06:09.798Z,0.10
2023-01-09T20:08:59.804Z,0.10
2023-01-09T20:11:48.442Z,0.17
2023-01-09T20:14:37.832Z,0.13
2023-01-09T20:17:28.492Z,0.10
2023-01-09T20:23:05.157Z,0.15
2023-01-09T20:25:53.850Z,0.20
2023-01-09T20:28:42.485Z,0.08
2023-01-09T20:31:32.994Z,0.20
2023-01-09T20:34:23.026Z,0.10
2023-01-09T20:37:11.754Z,0.10
2023-01-09T20:40:00.484Z,0.10
2023-01-09T20:42:49.232Z,0.10
2023-01-09T20:45:38.002Z,0.10
2023-01-09T20:48:26.778Z,0.10
2023-01-09T20:51:16.984Z,0.30
2023-01-09T20:54:05.823Z,0.20
2023-01-09T20:56:54.663Z,0.10
2023-01-09T20:59:43.244Z,0.10
2023-01-09T21:02:31.945Z,0.20
2023-01-09T21:05:23.453Z,0.20
2023-01-09T21:08:13.462Z,0.20
2023-01-09T21:11:02.353Z,0.10
2023-01-09T21:13:51.467Z,0.17
2023-01-09T21:16:40.248Z,0.20
2023-01-09T21:19:29.002Z,0.08
2023-01-09T21:22:17.744Z,0.10
2023-01-09T21:25:09.270Z,0.10
2023-01-09T21:27:57.939Z,0.22
2023-01-09T21:30:49.581Z,0.17
2023-01-09T21:33:38.295Z,0.30
2023-01-09T21:36:26.888Z,0.52
2023-01-09T21:39:15.576Z,0.10
2023-01-09T21:42:23.394Z,0.22
2023-01-09T21:45:32.720Z,0.10
2023-01-09T21:48:23.572Z,0.20
2023-01-09T21:51:12.355Z,0.10
2023-01-09T21:54:00.991Z,0.10
2023-01-09T21:56:49.638Z,0.15
2023-01-09T21:59:39.571Z,0.90
2023-01-09T22:02:28.135Z,0.22
2023-01-09T22:05:16.799Z,0.10
2023-01-09T22:08:05.413Z,0.10
2023-01-09T22:10:59.830Z,0.10
2023-01-09T22:13:48.972Z,0.03
2023-01-09T22:16:39.049Z,0.08
2023-01-09T22:19:28.302Z,0.20
2023-01-09T22:22:17.002Z,0.10
2023-01-09T22:25:06.956Z,0.28
2023-01-09T22:27:55.518Z,0.10
2023-01-09T22:30:44.315Z,0.10
2023-01-09T22:33:34.608Z,0.17
2023-01-09T22:36:23.183Z,0.17
2023-01-09T22:39:13.321Z,0.10
2023-01-09T22:42:02.514Z,0.10
2023-01-09T22:44:51.095Z,0.20
2023-01-09T22:47:39.695Z,0.10
2023-01-09T22:50:29.762Z,0.10
2023-01-09T22:53:18.353Z,0.10
2023-01-09T22:56:09.549Z,0.30
2023-01-09T22:59:00.799Z,0.20
2023-01-09T23:01:49.496Z,0.10
2023-01-09T23:04:38.205Z,0.10
2023-01-09T23:07:28.449Z,0.10
2023-01-09T23:10:17.623Z,0.00
2023-01-09T23:13:06.392Z,0.03
2023-01-09T23:15:55.438Z,0.17
2023-01-09T23:18:44.075Z,0.10
2023-01-09T23:21:32.689Z,0.30
2023-01-09T23:24:23.062Z,0.10
2023-01-09T23:27:11.667Z,0.10
2023-01-09T23:30:00.300Z,0.10
2023-01-09T23:32:49.254Z,0.08
2023-01-09T23:35:39.108Z,0.00
2023-01-09T23:38:27.870Z,0.00
2023-01-09T23:41:17.894Z,0.10
2023-01-09T23:44:05.575Z,0.00
2023-01-09T23:46:54.532Z,0.40
2023-01-09T23:49:43.088Z,0.00
2023-01-09T23:52:31.756Z,0.00
2023-01-09T23:55:20.515Z,0.00
2023-01-09T23:58:10.611Z,0.20
